createdAt,value
2023-05-21T00:04:59.398Z,6.68
2023-05-21T00:10:03.057Z,12.77
2023-05-21T00:15:08.082Z,12.10
2023-05-21T00:20:13.226Z,11.00
2023-05-21T00:25:16.151Z,10.20
2023-05-21T00:30:18.625Z,11.48
2023-05-21T00:35:21.731Z,11.77
2023-05-21T00:40:24.666Z,14.40
2023-05-21T00:45:27.378Z,7.93
2023-05-21T00:50:32.243Z,8.40
2023-05-21T00:55:40.389Z,10.20
2023-05-21T01:00:43.464Z,16.40
2023-05-21T01:05:47.030Z,9.20
2023-05-21T01:10:50.440Z,9.10
2023-05-21T01:15:54.047Z,10.75
2023-05-21T01:20:56.859Z,6.47
2023-05-21T01:25:59.738Z,8.40
2023-05-21T01:31:19.038Z,7.40
2023-05-21T01:36:27.903Z,8.60
2023-05-21T01:41:37.333Z,7.38
2023-05-21T01:46:41.311Z,5.85
2023-05-21T01:51:45.592Z,6.45
2023-05-21T01:56:48.156Z,6.32
2023-05-21T02:01:51.467Z,8.35
2023-05-21T02:06:55.059Z,11.95
2023-05-21T02:11:58.479Z,10.98
2023-05-21T02:17:01.358Z,9.20
2023-05-21T02:22:04.430Z,9.98
2023-05-21T02:27:07.388Z,9.00
2023-05-21T02:32:11.971Z,11.07
2023-05-21T02:37:14.999Z,10.15
2023-05-21T02:42:17.783Z,11.85
2023-05-21T02:47:20.811Z,8.63
2023-05-21T02:52:24.148Z,12.57
2023-05-21T02:57:28.345Z,7.30
2023-05-21T03:02:32.161Z,6.50
2023-05-21T03:07:34.645Z,6.20
2023-05-21T03:12:38.746Z,8.52
2023-05-21T03:17:42.580Z,6.38
2023-05-21T03:22:46.029Z,5.30
2023-05-21T03:27:48.631Z,6.97
2023-05-21T03:33:15.140Z,9.07
2023-05-21T03:48:27.239Z,9.05
2023-05-21T03:53:30.404Z,7.55
2023-05-21T03:58:33.133Z,8.80
2023-05-21T04:03:37.840Z,6.93
2023-05-21T04:08:43.489Z,8.23
2023-05-21T04:13:46.336Z,6.25
2023-05-21T04:18:49.874Z,5.85
2023-05-21T04:23:54.569Z,5.38
2023-05-21T04:29:05.718Z,6.05
2023-05-21T04:34:08.142Z,10.13
2023-05-21T04:39:10.681Z,13.70
2023-05-21T04:44:15.323Z,9.80
2023-05-21T04:49:21.901Z,10.90
2023-05-21T04:54:24.838Z,8.25
2023-05-21T04:59:27.325Z,9.35
2023-05-21T05:04:29.904Z,10.15
2023-05-21T05:09:32.562Z,8.57
2023-05-21T05:14:36.538Z,5.13
2023-05-21T05:19:40.026Z,7.85
2023-05-21T05:24:43.588Z,11.85
2023-05-21T05:29:46.578Z,8.52
2023-05-21T05:34:50.089Z,4.60
2023-05-21T05:39:53.225Z,9.10
2023-05-21T05:44:57.127Z,11.60
2023-05-21T05:50:00.744Z,4.65
2023-05-21T05:55:09.120Z,10.25
2023-05-21T06:00:14.400Z,8.85
2023-05-21T06:05:20.739Z,7.57
2023-05-21T06:10:27.068Z,12.90
2023-05-21T06:15:30.766Z,6.50
2023-05-21T06:20:33.933Z,10.32
2023-05-21T06:25:36.849Z,5.20
2023-05-21T06:30:42.792Z,10.35
2023-05-21T06:35:45.760Z,7.53
2023-05-21T06:40:48.825Z,16.17
2023-05-21T06:46:05.245Z,8.88
2023-05-21T06:51:16.216Z,10.98
2023-05-21T06:56:19.495Z,8.38
2023-05-21T07:01:23.899Z,10.32
2023-05-21T07:06:26.898Z,5.63
2023-05-21T07:11:31.206Z,15.65
2023-05-21T07:16:35.053Z,8.02
2023-05-21T07:21:38.218Z,8.55
2023-05-21T07:26:42.799Z,13.45
2023-05-21T07:31:46.577Z,11.93
2023-05-21T07:36:49.176Z,7.03
2023-05-21T07:41:52.117Z,9.98
2023-05-21T07:46:56.356Z,10.10
2023-05-21T07:51:59.279Z,10.00
2023-05-21T07:57:03.797Z,15.93
2023-05-21T08:02:30.614Z,12.68
2023-05-21T08:07:33.964Z,10.77
2023-05-21T08:12:36.611Z,9.57
2023-05-21T08:22:45.098Z,7.05
2023-05-21T08:27:49.460Z,7.30
2023-05-21T08:32:54.367Z,6.75
2023-05-21T08:37:58.945Z,8.02
2023-05-21T08:43:15.326Z,5.88
2023-05-21T08:48:23.860Z,8.02
2023-05-21T08:53:29.896Z,12.05
2023-05-21T08:58:34.834Z,6.85
2023-05-21T09:03:40.780Z,9.55
2023-05-21T09:08:50.756Z,5.57
2023-05-21T09:14:11.693Z,7.47
2023-05-21T09:19:30.962Z,3.63
2023-05-21T09:24:36.337Z,5.03
2023-05-21T09:29:42.600Z,3.47
2023-05-21T09:34:44.955Z,6.97
2023-05-21T09:39:49.339Z,9.30
2023-05-21T09:44:53.358Z,9.88
2023-05-21T09:49:58.983Z,6.55
2023-05-21T09:55:02.170Z,6.68
2023-05-21T10:00:09.176Z,4.88
2023-05-21T10:05:17.919Z,2.75
2023-05-21T10:10:23.385Z,4.07
2023-05-21T10:15:28.751Z,7.28
2023-05-21T10:20:32.170Z,6.45
2023-05-21T10:25:36.377Z,4.05
2023-05-21T10:30:40.091Z,2.42
2023-05-21T10:35:43.560Z,7.85
2023-05-21T10:40:47.333Z,6.10
2023-05-21T10:46:09.556Z,4.25
2023-05-21T10:51:29.601Z,4.63
2023-05-21T10:56:44.379Z,5.25
2023-05-21T11:01:47.657Z,4.88
2023-05-21T11:06:50.188Z,5.22
2023-05-21T11:11:58.798Z,4.10
2023-05-21T11:17:03.319Z,6.45
2023-05-21T11:27:10.798Z,4.45
2023-05-21T11:32:16.156Z,4.97
2023-05-21T11:37:25.252Z,5.32
2023-05-21T11:42:32.988Z,6.72
2023-05-21T11:47:36.708Z,6.57
2023-05-21T11:52:40.893Z,6.28
2023-05-21T11:57:45.178Z,5.65
2023-05-21T12:02:51.903Z,7.35
2023-05-21T12:07:56.374Z,8.18
2023-05-21T12:23:05.399Z,4.82
2023-05-21T12:28:09.096Z,3.17
2023-05-21T12:33:12.947Z,3.13
2023-05-21T12:38:16.655Z,3.72
2023-05-21T12:43:19.512Z,2.22
2023-05-21T12:48:22.844Z,4.20
2023-05-21T12:53:25.858Z,6.03
2023-05-21T12:58:28.677Z,2.08
2023-05-21T13:03:32.798Z,3.00
2023-05-21T13:08:35.642Z,7.88
2023-05-21T13:13:38.841Z,7.97
2023-05-21T13:18:41.382Z,5.00
2023-05-21T13:23:44.897Z,6.88
2023-05-21T13:28:48.389Z,2.88
2023-05-21T13:33:51.851Z,4.15
2023-05-21T13:38:57.200Z,3.53
2023-05-21T13:44:00.208Z,6.15
2023-05-21T13:49:04.282Z,5.80
2023-05-21T13:59:09.860Z,10.27
2023-05-21T14:04:13.539Z,9.77
2023-05-21T14:09:16.432Z,13.50
2023-05-21T14:14:19.512Z,7.45
2023-05-21T14:19:24.194Z,12.68
2023-05-21T14:24:26.671Z,9.38
2023-05-21T14:29:29.645Z,5.90
2023-05-21T14:34:32.123Z,3.75
2023-05-21T14:39:35.165Z,3.38
2023-05-21T14:44:37.585Z,2.63
2023-05-21T14:49:40.661Z,1.92
2023-05-21T14:54:44.082Z,3.47
2023-05-21T14:59:47.026Z,5.68
2023-05-21T15:04:49.423Z,3.55
2023-05-21T15:09:52.393Z,3.22
2023-05-21T15:14:54.705Z,4.22
2023-05-21T15:19:59.061Z,2.50
2023-05-21T15:25:02.529Z,5.70
2023-05-21T15:30:07.843Z,4.30
2023-05-21T15:35:10.603Z,4.55
2023-05-21T15:40:15.185Z,5.32
2023-05-21T15:45:18.117Z,3.08
2023-05-21T15:50:21.313Z,4.57
2023-05-21T15:55:23.738Z,6.50
2023-05-21T16:00:26.151Z,6.10
2023-05-21T16:05:29.459Z,5.03
2023-05-21T16:10:31.895Z,5.30
2023-05-21T16:15:34.614Z,13.55
2023-05-21T16:20:37.206Z,8.57
2023-05-21T16:25:41.053Z,5.07
2023-05-21T16:30:44.056Z,2.67
2023-05-21T16:35:46.930Z,3.67
2023-05-21T16:40:50.633Z,5.07
2023-05-21T16:45:54.225Z,6.10
2023-05-21T16:50:57.190Z,5.55
2023-05-21T16:56:00.129Z,8.98
2023-05-21T17:01:04.135Z,6.07
2023-05-21T17:06:07.858Z,5.53
2023-05-21T17:11:11.042Z,13.75
2023-05-21T17:16:13.777Z,9.80
2023-05-21T17:21:16.220Z,12.35
2023-05-21T17:26:19.341Z,8.98
2023-05-21T17:31:22.473Z,28.98
2023-05-21T17:36:25.341Z,26.90
2023-05-21T17:41:27.798Z,31.63
2023-05-21T17:46:30.764Z,27.10
2023-05-21T17:51:33.520Z,21.13
2023-05-21T17:56:39.628Z,28.05
2023-05-21T18:01:42.302Z,27.00
2023-05-21T18:06:45.922Z,16.27
2023-05-21T18:11:48.391Z,23.35
2023-05-21T18:16:50.905Z,29.15
2023-05-21T18:21:53.395Z,17.95
2023-05-21T18:26:56.450Z,8.77
2023-05-21T18:31:58.918Z,10.77
2023-05-21T18:37:01.375Z,18.27
2023-05-21T18:42:12.849Z,11.45
2023-05-21T18:47:15.879Z,9.15
2023-05-21T18:52:18.422Z,8.65
2023-05-21T18:57:21.410Z,9.27
2023-05-21T19:02:24.696Z,15.30
2023-05-21T19:07:27.138Z,13.73
2023-05-21T19:12:31.689Z,8.50
2023-05-21T19:17:36.442Z,9.85
2023-05-21T19:22:40.161Z,9.48
2023-05-21T19:27:42.739Z,10.02
2023-05-21T19:32:46.393Z,13.27
2023-05-21T19:37:48.869Z,8.63
2023-05-21T19:42:51.265Z,12.27
2023-05-21T19:47:54.532Z,10.18
2023-05-21T19:52:58.728Z,8.88
2023-05-21T19:58:01.853Z,17.50
2023-05-21T20:03:04.600Z,10.32
2023-05-21T20:08:07.017Z,7.72
2023-05-21T20:13:10.671Z,25.00
2023-05-21T20:18:13.214Z,23.98
2023-05-21T20:23:16.743Z,16.25
2023-05-21T20:28:21.175Z,14.15
2023-05-21T20:33:27.556Z,9.70
2023-05-21T20:38:33.385Z,14.65
2023-05-21T20:43:37.585Z,8.55
2023-05-21T20:48:41.954Z,12.32
2023-05-21T20:53:46.705Z,11.95
2023-05-21T20:58:49.064Z,9.60
2023-05-21T21:03:51.863Z,9.82
2023-05-21T21:08:55.801Z,15.88
2023-05-21T21:14:00.270Z,11.98
2023-05-21T21:19:03.313Z,8.70
2023-05-21T21:24:06.605Z,7.70
2023-05-21T21:29:08.983Z,14.35
2023-05-21T21:34:11.559Z,9.35
2023-05-21T21:39:14.144Z,14.75
2023-05-21T21:44:16.590Z,10.10
2023-05-21T21:49:19.148Z,7.55
2023-05-21T21:54:21.496Z,11.00
2023-05-21T21:59:24.498Z,9.35
2023-05-21T22:04:27.527Z,16.33
2023-05-21T22:09:30.094Z,12.18
2023-05-21T22:14:32.451Z,12.73
2023-05-21T22:19:36.136Z,16.17
2023-05-21T22:24:39.536Z,13.20
2023-05-21T22:29:42.095Z,7.97
2023-05-21T22:34:44.678Z,13.13
2023-05-21T22:39:47.669Z,10.48
2023-05-21T22:44:50.845Z,10.27
2023-05-21T22:49:54.068Z,6.55
2023-05-21T22:54:58.113Z,8.32
2023-05-21T23:00:00.556Z,5.32
2023-05-21T23:05:02.962Z,4.32
2023-05-21T23:10:06.939Z,5.95
2023-05-21T23:15:11.015Z,7.82
2023-05-21T23:20:13.562Z,4.95
2023-05-21T23:25:17.677Z,7.07
2023-05-21T23:30:20.676Z,4.32
2023-05-21T23:35:24.830Z,7.95
2023-05-21T23:40:27.720Z,3.40
2023-05-21T23:45:32.310Z,3.33
2023-05-21T23:50:35.334Z,4.10
2023-05-21T23:55:38.340Z,5.38
